Pagrindinis puslapis
METAR-TAF:

METAR-TAF

Oro uostai :

Pnompenis, Kambodža

platuma: 11-33N, ilguma: 104-51E, Aukštis: 10 m

Dabartinis oras

Ataskaita buvo paskelbta 27 minutes, ne 01:30 UTC
Vėjas 10 kt iš Šiaurės/Šiaurės Rytų
Temperatūra 27°C
Drėgmė 74%
Slėgis 1012 hPa
Matomumas 10 km arba daugiau
Išsisklaidę debesys ne aukštis 1500 ft
Išsisklaidę debesys ne aukštis 4000 ft

METAR: VDPP 290130Z 02010KT 9999 SCT015 SCT040 27/22 Q1012

Laikas: 08:57 (01:57 UTC)

Prognozė

Ataskaita buvo paskelbta 2 valandos ir 57 minutes, ne 23:00 UTC
Prognozė galioja nuo 29 metu 00 UTC su 29 metu 18 UTC
Vėjas 7 kt iš Šiaurės Rytų
Matomumas 10 km arba daugiau
Išsisklaidę debesys ne aukštis 1700 ft
Laikinai
nuo 29 metu 06 UTC su 29 metu 11 UTC
Išsisklaidę debesys ne aukštis 1500 ft
Mažai debesys ne aukštis 1700 ft, Liūtiniai kamuoliniai debesys.

TAF: VDPP 282300Z 2900/2918 05007KT 9999 SCT017 TEMPO 2906/2911 SCT015 FEW017CB

Orai ataskaitas ir orų prognozės (METAR, TAF).

turimą stotys yra geltonos ir raudonos taškus žemėlapyje.

Perkelti pele per norėdami pamatyti stoties vardą.

Tada spustelėkite, norėdami matyti oro stebėjimo ir prognozės.

Norėdami pakeisti žemėlapį: spustelėkite ant žalios mygtukų su juodo kryžiaus žemyn,; žalią mygtuką su brūkšneliu, jei norite nutolinti; arba žalių rodyklių gretimoms žemėlapius.


METAR-TAF: